Date,TemperatureHighF,TemperatureAvgF,TemperatureLowF,DewpointHighF,DewpointAvgF,DewpointLowF,HumidityHigh,HumidityAvg,HumidityLow,PressureMaxIn,PressureMinIn,WindSpeedMaxMPH,WindSpeedAvgMPH,GustSpeedMaxMPH,PrecipitationSumIn
2013-1-1,33,27,19,31,22,13,90,81,72,30.98,30.87,8,3,17,0.00
2013-1-2,24,20,-1,22,15,-4,92,81,73,31.13,30.95,9,4,12,0.00
2013-1-3,31,20,0,25,16,-3,93,85,73,31.12,30.98,15,6,22,0.00
2013-1-4,33,29,26,25,21,19,85,73,59,31.10,30.94,20,10,30,0.00
2013-1-5,35,30,26,27,24,21,88,80,70,31.24,30.99,12,6,20,0.00
2013-1-6,37,34,31,33,31,26,94,86,77,31.09,30.82,12,6,18,0.11
2013-1-7,36,32,27,32,28,23,95,85,70,31.31,31.09,14,5,20,0.01
2013-1-8,42,27,17,29,22,16,98,83,55,31.21,31.13,8,2,12,0.01
2013-1-9,48,33,16,39,27,14,96,81,55,31.36,31.02,15,4,24,0.03
2013-1-10,42,31,20,33,27,19,96,86,66,31.50,31.16,6,0,12,0.00
2013-1-11,47,41,34,46,37,30,98,86,62,31.16,30.72,8,2,16,0.53
2013-1-12,60,48,35,57,47,35,99,95,82,30.90,30.76,13,3,16,0.01
2013-1-13,64,56,41,58,53,39,99,90,77,30.82,30.61,13,4,21,0.20
2013-1-14,41,32,29,39,27,23,94,82,72,31.31,30.83,12,4,20,0.01
2013-1-15,34,29,28,24,23,21,82,77,62,31.30,31.00,6,1,10,0.00
2013-1-16,36,32,28,29,26,24,92,77,64,31.01,30.75,10,4,20,0.00
2013-1-17,36,34,26,30,27,19,89,78,70,31.11,30.86,10,3,20,0.00
2013-1-18,34,26,20,22,16,8,79,67,58,31.37,31.00,17,8,25,0.00
2013-1-19,50,47,35,31,29,21,58,49,44,31.00,30.56,18,14,28,0.00
2013-1-20,47,31,23,35,20,12,82,65,54,31.02,30.51,21,8,39,0.00
2013-1-21,23,19,12,18,13,9,91,77,59,31.00,30.81,15,7,23,0.00
2013-1-22,12,9,7,9,6,4,90,89,87,31.17,30.95,13,6,20,0.00
2013-1-23,14,10,2,11,8,-1,90,89,86,31.18,31.00,9,4,16,0.00
2013-1-24,20,8,-9,14,3,-13,92,82,66,31.48,30.98,9,1,17,0.00
2013-1-25,19,11,-2,14,8,-6,91,87,78,31.45,30.96,7,0,9,0.00
2013-1-26,27,19,-1,24,16,-4,92,89,82,31.36,30.99,8,2,15,0.00
2013-1-27,30,17,-5,25,12,-9,92,79,61,31.46,31.19,9,1,14,0.03
2013-1-28,43,37,27,42,36,25,98,96,90,31.19,30.81,12,5,17,0.89
2013-1-29,54,43,34,53,42,34,99,98,97,30.93,30.54,7,1,14,0.10
2013-1-30,62,56,40,56,52,35,95,86,74,30.54,29.97,20,9,36,0.60
2013-1-31,40,27,20,35,22,14,92,80,70,30.73,30.09,21,12,32,0.01
2013-2-1,21,17,14,18,12,7,93,84,71,31.20,30.71,13,7,22,0.00
2013-2-2,22,17,13,20,13,6,93,85,72,31.20,30.87,9,3,17,0.00
2013-2-3,22,19,15,19,15,13,94,84,69,30.89,30.75,12,5,17,0.00
2013-2-4,25,21,17,22,17,10,93,85,73,30.94,30.77,9,4,15,0.00
2013-2-5,30,26,16,23,21,14,94,81,69,30.82,30.73,8,2,12,0.06
2013-2-6,32,23,5,26,16,3,92,76,51,31.24,30.83,8,2,15,0.02
2013-2-7,44,28,5,28,20,2,92,73,48,31.23,30.81,3,0,10,0.06
2013-2-8,38,31,22,35,27,18,95,86,77,31.11,30.63,13,5,24,0.31
2013-2-9,34,24,10,21,18,8,91,78,52,31.32,31.11,9,2,20,0.00
2013-2-10,46,28,7,31,18,4,94,70,38,31.24,30.76,15,2,25,0.00
2013-2-11,51,41,34,44,34,27,98,78,60,30.76,30.51,22,10,35,0.00
2013-2-12,34,32,23,28,26,22,95,79,72,30.94,30.76,16,5,24,0.00
2013-2-13,36,29,22,29,26,20,98,87,72,30.82,30.62,6,1,14,0.00
2013-2-14,40,32,20,36,29,19,96,90,76,30.77,30.69,17,6,27,0.03
2013-2-15,38,32,25,31,26,21,90,78,66,30.98,30.75,15,4,24,0.00
2013-2-16,30,25,17,22,17,12,94,75,47,30.97,30.85,7,1,15,0.00
2013-2-17,22,18,8,19,13,5,93,80,60,31.16,30.84,12,3,24,0.00
2013-2-18,41,22,5,30,14,2,90,71,50,31.19,30.67,3,0,6,0.01
2013-2-19,44,33,19,38,28,15,93,83,61,30.81,30.47,16,4,29,0.19
2013-2-20,23,20,17,18,14,10,93,80,58,31.10,30.81,13,5,24,0.00
2013-2-21,23,20,18,18,15,13,90,80,73,31.28,31.08,7,2,15,0.00
2013-2-22,35,29,17,34,25,14,96,87,72,31.22,30.85,5,0,12,0.03
2013-2-23,36,34,30,35,29,24,97,83,69,30.87,30.76,6,1,10,0.01
2013-2-24,34,29,24,26,24,21,94,81,70,31.03,30.76,12,3,18,0.00
2013-2-25,42,30,21,30,25,19,96,81,52,31.13,30.98,6,0,7,0.00
2013-2-26,41,33,22,36,29,21,94,86,64,31.01,30.44,9,2,20,0.74
2013-2-27,42,38,37,40,37,35,97,93,90,30.47,30.40,9,3,15,0.12
2013-2-28,36,34,32,34,32,29,96,91,86,30.73,30.45,9,4,17,0.04
2013-3-1,32,28,26,29,24,22,91,85,81,30.90,30.73,8,3,15,0.00
2013-3-2,27,26,24,24,22,20,90,87,81,30.89,30.85,7,2,13,0.01
2013-3-3,28,25,23,24,21,18,93,86,74,30.92,30.84,10,3,17,0.00
2013-3-4,34,26,18,22,19,16,93,76,54,31.00,30.92,9,2,16,0.03
2013-3-5,40,27,14,30,22,12,94,83,61,31.02,30.63,5,1,12,0.03
2013-3-6,45,36,31,33,29,26,90,79,58,31.03,30.63,7,2,12,0.00
2013-3-7,41,34,31,34,31,28,96,88,76,31.23,31.02,8,2,14,0.00
2013-3-8,40,33,26,33,29,25,95,86,72,31.33,31.22,7,2,16,0.00
2013-3-9,53,36,21,36,28,20,96,75,44,31.33,31.03,0,0,0,0.00
2013-3-10,70,52,36,42,36,31,91,58,31,31.03,30.78,0,0,0,0.00
2013-3-11,58,53,45,48,42,35,93,69,42,30.71,30.44,0,0,0,0.70
2013-3-12,45,38,34,41,32,27,87,79,74,30.85,30.59,10,1,20,0.00
2013-3-13,35,31,27,29,26,20,92,81,62,31.00,30.76,16,6,25,0.00
2013-3-14,35,29,24,24,20,15,90,68,55,31.11,30.99,14,5,26,0.00
2013-3-15,43,34,23,34,29,20,95,83,69,30.99,30.73,13,3,17,0.01
2013-3-16,33,31,27,32,29,25,97,93,85,30.90,30.57,5,0,10,0.08
2013-3-17,33,29,25,28,23,19,96,79,60,31.14,30.90,7,1,12,0.16
2013-3-18,34,29,22,32,24,18,92,82,73,31.10,30.74,9,2,18,0.01
2013-3-19,38,32,28,37,26,20,97,79,67,30.82,30.56,20,8,28,0.07
2013-3-20,32,29,24,25,21,18,91,72,59,30.83,30.76,14,6,24,0.01
2013-3-21,28,23,13,28,20,10,100,89,77,30.78,30.73,13,4,20,0.00
2013-3-22,32,26,7,26,21,4,95,84,68,30.91,30.77,10,4,18,0.00
2013-3-23,38,24,4,28,18,1,95,79,59,30.98,30.90,8,1,16,0.09
2013-3-24,36,28,18,27,22,17,95,80,57,30.95,30.44,7,2,15,0.01
2013-3-25,37,34,32,34,31,26,96,92,72,30.68,30.37,6,1,12,0.33
2013-3-26,39,35,32,34,32,30,94,88,75,30.95,30.68,10,3,17,0.04
2013-3-27,41,36,33,33,31,29,95,82,64,31.03,30.93,13,4,20,0.03
2013-3-28,42,37,34,35,33,32,95,87,72,31.14,31.01,8,2,14,0.05
2013-3-29,50,40,29,36,31,26,95,74,42,31.14,31.07,10,2,20,0.00
2013-3-30,56,40,25,33,28,23,95,68,30,31.12,30.88,0,0,0,0.00
2013-3-31,54,42,32,47,38,31,95,86,56,30.87,30.53,14,3,24,0.03
2013-4-1,47,37,31,42,25,15,91,63,41,30.93,30.51,15,6,24,0.01
2013-4-2,38,31,24,22,19,14,89,60,40,31.07,30.93,15,5,24,0.00
2013-4-3,37,29,19,23,18,15,92,66,42,31.33,31.07,13,3,25,0.00
2013-4-4,56,34,17,25,18,11,95,61,17,31.29,30.84,7,0,10,0.00
2013-4-5,45,35,23,33,26,20,98,71,50,31.10,30.80,10,3,18,0.00
2013-4-6,56,38,20,28,20,16,94,57,22,31.17,30.81,14,4,20,0.00
2013-4-7,73,56,41,48,37,19,83,49,27,30.89,30.63,21,7,30,0.00
2013-4-8,73,54,28,56,43,27,97,70,45,30.92,30.67,20,6,31,0.00
2013-4-9,78,60,47,58,49,43,89,69,49,30.97,30.68,15,4,26,0.00
2013-4-10,61,51,42,59,48,41,99,91,77,30.83,30.65,10,1,20,0.62
2013-4-11,44,42,40,43,41,39,97,96,92,30.80,30.49,8,2,18,0.19
2013-4-12,52,45,41,52,42,36,98,90,77,30.72,30.33,14,5,21,0.31
2013-4-13,45,41,35,40,36,32,93,82,69,30.89,30.71,16,7,29,0.04
2013-4-14,52,41,31,40,35,29,95,80,58,31.02,30.88,8,1,13,0.00
2013-4-15,72,57,37,53,47,36,97,72,48,30.93,30.84,17,5,28,0.00
2013-4-16,67,57,50,62,52,49,95,84,74,31.06,30.83,12,4,21,0.12
2013-4-17,64,53,46,49,42,35,96,68,45,31.17,30.94,7,2,13,0.00
2013-4-18,85,68,48,64,56,41,97,67,41,30.94,30.52,21,7,32,0.00
2013-4-19,71,55,41,61,46,30,92,74,58,30.68,30.23,18,9,30,0.35
2013-4-20,42,38,30,35,29,24,97,73,52,31.31,30.68,16,7,25,0.05
2013-4-21,49,37,26,32,28,24,96,72,43,31.52,31.31,9,1,15,0.00
2013-4-22,65,48,27,40,33,26,97,62,35,31.37,31.11,12,3,18,0.00
2013-4-23,73,58,41,43,38,29,74,49,31,31.13,30.75,15,4,20,0.00
2013-4-24,62,48,35,56,44,34,95,86,47,31.02,30.55,14,4,20,0.55
2013-4-25,54,41,32,41,36,30,96,83,47,31.23,31.01,16,4,25,0.08
2013-4-26,60,44,29,40,33,28,97,71,34,31.36,31.23,0,0,0,0.01
2013-4-27,74,52,31,45,37,30,98,64,24,31.28,30.99,9,1,17,0.00
2013-4-28,61,51,41,55,48,39,98,89,59,30.99,30.77,9,2,20,0.31
2013-4-29,64,58,54,60,55,51,96,92,80,30.85,30.75,7,2,14,0.15
2013-4-30,76,62,47,60,54,46,99,77,50,31.00,30.85,10,3,20,0.01
2013-5-1,79,65,48,59,53,46,100,69,41,31.12,31.00,10,3,20,0.00
2013-5-2,79,66,48,53,43,32,79,47,19,31.19,31.03,10,2,18,0.00
2013-5-3,78,66,50,47,43,36,76,45,28,31.07,30.96,14,4,26,0.00
2013-5-4,74,62,49,50,43,39,91,54,29,31.05,30.92,10,2,18,0.00
2013-5-5,78,60,39,50,39,24,99,56,16,31.00,30.86,10,2,22,0.00
2013-5-6,75,59,37,53,45,35,97,64,40,30.95,30.83,9,2,16,0.00
2013-5-7,77,62,47,59,54,46,98,76,41,30.90,30.80,7,1,14,0.00
2013-5-8,71,60,50,61,56,50,98,88,60,30.85,30.78,7,1,12,0.25
2013-5-9,77,63,52,61,54,37,99,78,24,30.84,30.77,8,1,15,0.00
2013-5-10,76,63,54,65,59,52,97,87,63,30.82,30.60,14,5,24,0.31
2013-5-11,58,49,44,57,46,43,97,92,83,30.72,30.62,9,3,20,0.08
2013-5-12,51,43,34,44,36,32,96,77,50,30.95,30.72,17,6,28,0.08
2013-5-13,50,41,32,33,30,26,95,68,42,31.06,30.93,10,3,20,0.00
2013-5-14,57,45,30,42,36,28,97,74,54,31.06,30.73,10,2,18,0.00
2013-5-15,84,64,46,65,51,41,93,68,32,30.73,30.53,15,4,28,0.04
2013-5-16,80,64,45,57,47,36,98,63,24,30.84,30.61,12,2,20,0.00
2013-5-17,77,61,44,54,48,41,98,67,35,31.01,30.84,8,1,12,0.00
2013-5-18,80,64,49,60,52,47,95,69,43,31.01,30.89,7,1,12,0.00
2013-5-19,82,69,52,66,60,51,97,77,55,30.94,30.79,12,2,24,0.00
2013-5-20,88,73,57,70,65,56,98,78,51,30.85,30.68,12,3,18,0.00
2013-5-21,78,70,66,72,67,64,97,93,77,30.75,30.70,9,3,15,0.00
2013-5-22,88,76,66,67,64,60,94,69,44,30.66,30.53,18,6,28,0.02
2013-5-23,74,61,44,66,58,43,97,90,68,30.85,30.57,10,3,20,0.21
2013-5-24,45,43,32,43,37,30,94,81,70,31.19,30.85,9,4,20,0.00
2013-5-25,59,46,31,44,36,30,98,72,42,31.23,31.13,13,3,20,0.01
2013-5-26,65,49,31,46,36,30,98,68,32,31.19,31.11,8,2,16,0.00
2013-5-27,67,51,33,52,42,32,98,75,36,31.16,30.97,9,2,14,0.05
2013-5-28,80,64,52,71,61,50,98,91,70,30.97,30.73,14,3,24,1.08
2013-5-29,87,75,63,71,66,62,98,76,51,30.88,30.76,14,4,20,0.01
2013-5-30,88,74,58,72,65,57,98,76,42,30.98,30.88,12,3,18,0.00
2013-5-31,88,72,58,73,65,57,99,81,48,30.92,30.78,14,4,23,0.52
2013-6-1,85,73,65,75,68,64,97,85,62,30.82,30.60,17,6,26,0.48
2013-6-2,77,70,60,67,63,54,98,80,60,30.78,30.58,15,5,24,0.88
2013-6-3,61,56,45,54,47,38,94,73,43,30.96,30.77,8,2,14,0.00
2013-6-4,68,54,41,53,45,40,99,75,45,31.05,30.96,8,1,12,0.00
2013-6-5,76,60,44,58,50,44,98,73,46,31.04,30.81,7,1,14,0.00
2013-6-6,65,59,55,64,57,53,98,95,80,30.81,30.64,6,1,12,1.50
2013-6-7,60,56,55,58,55,54,99,96,89,30.75,30.69,6,1,12,0.00
2013-6-8,69,61,54,59,56,52,98,86,65,30.97,30.74,7,1,12,0.00
2013-6-9,79,64,49,67,59,48,98,84,60,31.04,30.85,6,0,9,0.00
2013-6-10,74,68,63,71,66,62,98,94,82,30.85,30.58,9,1,13,0.84
2013-6-11,75,68,62,67,64,62,99,89,71,30.73,30.61,8,2,15,0.01
2013-6-12,78,70,60,72,66,59,99,89,72,30.77,30.57,7,0,9,0.00
2013-6-13,69,64,58,68,63,57,98,94,85,30.70,30.28,14,3,28,0.56
2013-6-14,70,62,52,62,58,51,98,87,68,30.94,30.69,8,1,14,0.01
2013-6-15,79,63,44,65,54,43,99,76,44,31.00,30.84,10,1,15,0.00
2013-6-16,80,70,64,69,65,60,96,82,66,30.86,30.66,10,4,18,0.02
2013-6-17,84,70,56,67,62,55,99,77,43,30.82,30.73,10,2,21,0.04
2013-6-18,73,64,53,64,59,50,98,83,62,30.89,30.73,7,1,17,0.00
2013-6-19,73,60,46,57,51,45,98,75,47,31.05,30.89,6,1,12,0.00
2013-6-20,80,63,46,60,53,45,98,73,38,31.10,31.04,7,1,15,0.00
2013-6-21,84,67,50,68,58,49,98,77,47,31.12,30.99,10,1,14,0.00
2013-6-22,90,74,56,72,66,55,98,77,53,31.02,30.87,12,3,16,0.00
2013-6-23,92,78,64,74,68,62,98,75,44,30.96,30.85,14,3,20,0.00
2013-6-24,91,78,65,70,66,64,96,70,43,30.95,30.80,10,3,17,0.00
2013-6-25,91,75,67,72,68,64,96,81,50,30.85,30.69,14,4,24,0.72
2013-6-26,84,74,66,73,69,66,97,86,66,30.79,30.64,10,2,14,0.15
2013-6-27,80,70,67,71,68,66,98,93,68,30.64,30.50,7,1,12,1.25
2013-6-28,78,71,64,71,66,62,98,87,68,30.52,30.35,8,2,16,0.12
2013-6-29,73,67,63,68,65,62,98,94,83,30.56,30.36,6,0,10,0.53
2013-6-30,74,68,62,69,65,62,99,90,74,30.75,30.56,8,1,14,0.01
2013-7-1,73,67,64,69,65,63,98,92,86,30.87,30.72,3,0,10,0.00
2013-7-2,82,70,63,73,66,62,97,88,67,30.92,30.82,7,1,9,0.00
2013-7-3,86,74,62,75,69,62,98,84,60,30.99,30.91,12,3,17,0.04
2013-7-4,80,74,70,73,70,68,98,89,75,31.03,30.97,12,3,16,0.13
2013-7-5,80,73,69,73,70,68,98,91,76,30.99,30.93,14,3,20,0.21
2013-7-6,86,74,67,74,70,67,99,90,64,31.01,30.86,12,2,22,0.09
2013-7-7,81,74,69,72,69,67,97,87,71,30.93,30.83,10,4,15,0.01
2013-7-8,85,73,66,74,68,64,98,86,63,30.94,30.85,12,2,23,1.42
2013-7-9,87,75,69,78,72,68,98,91,71,30.92,30.76,10,3,17,0.14
2013-7-10,86,74,69,79,72,67,98,91,73,30.76,30.61,16,5,26,2.47
2013-7-11,74,70,62,68,61,58,96,75,58,30.89,30.75,7,1,14,0.00
2013-7-12,80,68,56,69,63,56,99,85,61,30.99,30.89,6,0,12,0.01
2013-7-13,82,71,59,73,66,58,98,86,63,31.09,30.98,3,0,9,0.00
2013-7-14,88,76,63,78,71,63,99,85,60,31.13,31.08,8,1,13,0.00
2013-7-15,88,79,69,79,74,68,98,87,68,31.17,31.09,6,0,9,0.00
2013-7-16,88,79,71,81,75,70,99,88,71,31.15,31.07,8,0,12,0.00
2013-7-17,92,81,71,78,74,71,99,81,56,31.13,30.99,6,1,12,0.00
2013-7-18,92,82,71,79,74,70,99,81,53,31.01,30.83,8,1,12,0.00
2013-7-19,92,82,71,78,74,68,97,80,58,30.84,30.63,13,4,21,0.00
2013-7-20,79,72,67,74,70,66,98,92,79,30.77,30.62,15,2,26,1.84
2013-7-21,84,73,66,72,68,64,99,85,57,30.83,30.76,6,0,12,0.00
2013-7-22,80,69,62,74,67,61,98,94,78,30.82,30.62,5,0,7,0.09
2013-7-23,81,71,63,73,67,62,99,88,68,30.65,30.51,8,2,17,0.06
2013-7-24,69,63,54,62,56,53,96,78,61,30.90,30.65,8,1,14,0.00
2013-7-25,75,61,48,59,54,47,99,78,48,30.98,30.90,6,0,12,0.00
2013-7-26,80,65,50,65,57,49,99,80,50,30.97,30.83,8,1,13,0.00
2013-7-27,70,65,59,69,63,58,98,95,90,30.83,30.66,7,1,10,0.20
2013-7-28,70,64,59,64,58,53,98,81,57,30.88,30.69,10,3,18,0.02
2013-7-29,71,63,56,62,57,54,95,82,60,31.05,30.86,9,2,18,0.00
2013-7-30,77,65,53,64,59,52,99,83,58,31.10,31.02,5,0,10,0.01
2013-7-31,78,67,56,67,62,55,100,85,65,31.02,30.79,8,1,14,0.00
2013-8-1,77,69,62,68,65,60,98,87,66,30.78,30.69,8,2,14,0.27
2013-8-2,76,66,56,66,61,56,99,84,61,30.82,30.74,10,3,17,0.04
2013-8-3,77,69,59,67,62,54,98,80,47,30.86,30.76,8,1,16,0.01
2013-8-4,72,64,56,61,58,54,98,83,63,30.99,30.85,8,2,15,0.00
2013-8-5,73,61,48,63,55,48,99,83,53,31.01,30.88,5,0,8,0.00
2013-8-6,79,66,53,66,59,52,99,81,49,30.90,30.82,8,1,14,0.00
2013-8-7,78,68,58,72,66,57,98,92,75,30.83,30.72,12,2,23,0.69
2013-8-8,79,73,69,75,71,68,98,94,86,30.81,30.76,6,1,12,0.04
2013-8-9,77,70,59,70,65,58,98,86,57,30.87,30.75,6,1,12,0.16
2013-8-10,77,66,56,65,60,56,99,83,55,30.99,30.87,6,0,9,0.00
2013-8-11,82,69,58,66,61,57,98,79,52,31.01,30.90,5,0,10,0.00
2013-8-12,74,66,59,70,64,58,98,94,81,30.93,30.70,6,0,10,0.03
2013-8-13,69,64,51,66,60,49,100,87,65,30.85,30.65,8,2,17,0.55
2013-8-14,69,58,50,59,53,49,98,85,57,31.03,30.85,8,1,17,0.01
2013-8-15,68,51,46,61,50,46,100,95,71,31.06,31.01,5,0,10,0.01
2013-8-18,76,72,67,68,66,65,94,83,71,31.01,30.99,7,0,9,0.01
2013-8-19,79,69,57,70,64,56,98,87,63,31.00,30.93,5,0,12,0.00
2013-8-20,84,68,54,71,62,53,99,83,51,31.03,30.95,5,0,9,0.00
2013-8-21,85,70,56,72,64,55,100,84,50,31.06,30.89,6,1,12,0.01
2013-8-22,84,72,62,73,67,61,98,86,60,30.93,30.82,7,1,12,0.00
2013-8-23,80,70,56,67,61,54,98,78,42,31.05,30.86,7,1,12,0.00
2013-8-24,81,64,49,64,56,48,99,79,38,31.19,31.05,5,0,8,0.00
2013-8-25,84,66,50,69,60,50,99,82,50,31.22,31.06,7,1,12,0.01
2013-8-26,86,71,58,71,65,57,98,83,56,31.08,30.84,9,2,16,0.25
2013-8-27,82,72,64,76,70,64,99,93,71,30.84,30.76,8,1,13,1.91
2013-8-28,78,72,66,76,71,65,99,96,85,30.82,30.66,7,1,13,0.43
2013-8-29,85,74,65,75,70,64,99,88,63,30.92,30.81,5,0,9,0.01
2013-8-30,86,72,60,76,68,60,99,88,62,30.88,30.64,7,1,14,0.00
2013-8-31,83,74,67,75,71,66,99,89,73,30.69,30.59,6,1,12,0.00
2013-9-1,81,71,64,75,69,64,99,95,79,30.68,30.60,7,0,12,0.28
2013-9-2,80,70,64,75,68,62,99,93,78,30.70,30.59,8,1,17,0.02
2013-9-3,68,62,54,62,58,53,98,88,75,30.90,30.70,7,1,14,0.00
2013-9-4,78,63,51,66,58,50,99,84,53,30.97,30.88,8,2,13,0.00
2013-9-5,69,62,48,63,55,47,99,78,55,31.10,30.90,8,1,15,0.00
2013-9-6,75,57,42,59,50,41,99,81,38,31.17,30.99,5,0,7,0.00
2013-9-7,80,63,46,69,58,46,99,87,59,30.99,30.78,7,1,17,0.01
2013-9-8,73,65,50,67,61,49,99,88,61,30.95,30.75,7,1,13,0.00
2013-9-9,76,61,45,72,59,44,100,94,84,30.97,30.85,6,0,8,0.01
2013-9-10,92,78,67,83,74,66,98,87,63,30.92,30.84,9,3,15,0.00
2013-9-11,90,79,68,79,74,68,99,87,63,30.93,30.79,8,2,12,0.00
2013-9-12,74,68,60,70,66,59,99,93,74,30.83,30.66,7,1,17,0.48
2013-9-13,60,57,51,60,54,49,98,89,70,30.94,30.70,8,1,17,0.12
2013-9-14,66,54,45,53,48,44,97,80,56,31.04,30.93,6,1,10,0.00
2013-9-15,68,55,42,58,51,41,99,89,65,31.06,30.93,7,1,12,0.03
2013-9-16,65,57,45,60,55,44,99,91,79,31.22,30.98,9,1,15,0.04
2013-9-17,70,51,36,54,44,35,99,80,40,31.32,31.14,6,0,10,0.00
2013-9-18,75,53,37,62,49,36,99,87,55,31.14,30.96,8,1,13,0.00
2013-9-19,75,63,49,68,61,48,100,93,77,30.99,30.86,9,2,14,0.00
2013-9-20,78,68,58,73,66,57,99,94,84,30.89,30.63,9,2,17,0.80
2013-9-21,69,63,54,68,62,53,99,96,78,30.66,30.50,7,1,22,1.89
2013-9-22,57,54,50,56,51,48,98,90,73,30.92,30.66,6,1,12,0.02
2013-9-23,58,51,40,50,48,40,98,90,71,31.05,30.92,2,0,6,0.00
2013-9-24,69,50,35,56,46,35,99,87,58,31.05,30.88,5,0,10,0.01
2013-9-25,73,53,38,59,48,37,99,87,50,30.90,30.79,5,0,8,0.00
2013-9-26,71,54,39,58,48,38,99,83,44,31.01,30.86,7,0,12,0.01
2013-9-27,72,56,41,59,51,40,99,85,57,31.10,31.01,6,0,9,0.00
2013-9-28,75,58,41,60,51,40,99,82,54,31.13,31.00,8,1,14,0.00
2013-9-29,72,59,44,64,55,43,99,89,71,31.00,30.86,9,1,16,0.00
2013-9-30,67,62,54,63,60,53,98,95,86,30.88,30.83,7,1,12,0.03
2013-10-1,78,62,53,67,58,52,99,89,60,30.94,30.83,8,2,15,0.00
2013-10-2,79,63,51,69,59,50,99,89,62,30.96,30.86,7,1,13,0.01
2013-10-3,78,62,50,71,60,50,99,95,75,30.96,30.85,7,0,10,0.48
2013-10-4,80,69,63,71,66,62,99,92,70,30.92,30.88,7,1,12,0.05
2013-10-5,81,69,62,71,67,62,99,94,70,30.92,30.80,8,1,12,0.09
2013-10-6,82,72,62,71,67,59,99,86,67,30.80,30.55,14,3,23,0.09
2013-10-7,61,55,47,59,50,45,97,84,61,30.99,30.57,14,4,24,0.86
2013-10-8,68,53,41,55,47,40,99,82,43,31.19,30.99,5,0,8,0.00
2013-10-9,72,52,36,55,44,35,100,79,36,31.24,31.11,7,0,12,0.01
2013-10-10,73,50,37,55,44,36,99,85,32,31.14,31.00,5,0,8,0.00
2013-10-11,75,54,39,57,48,38,99,81,44,31.03,30.93,5,0,9,0.00
2013-10-12,79,59,42,65,54,41,99,85,59,31.02,30.93,8,1,12,0.00
2013-10-13,69,63,59,63,60,58,97,92,79,31.15,31.00,7,1,10,0.03
2013-10-14,64,55,41,58,49,40,97,81,58,31.23,31.14,6,1,12,0.00
2013-10-15,68,53,38,61,51,38,99,93,79,31.14,30.82,7,1,13,0.00
2013-10-16,70,60,47,65,58,46,98,96,84,30.82,30.65,12,3,21,1.30
2013-10-17,61,51,43,52,48,42,99,90,69,30.79,30.63,9,2,15,0.23
2013-10-18,64,53,45,48,46,43,95,80,51,30.85,30.72,12,4,18,0.04
2013-10-19,53,47,42,49,45,40,95,91,83,30.80,30.59,8,2,14,0.39
2013-10-20,60,46,37,45,41,36,96,82,50,30.87,30.76,12,3,18,0.00
2013-10-21,66,53,41,52,44,39,94,72,42,30.87,30.70,14,5,25,0.05
2013-10-22,52,45,39,49,38,31,95,78,47,30.81,30.70,9,4,20,0.13
2013-10-23,49,41,36,42,37,33,95,86,56,30.80,30.65,12,2,18,0.17
2013-10-24,42,36,34,39,35,33,97,94,86,31.02,30.78,13,4,18,0.51
2013-10-25,48,39,30,41,35,30,98,86,61,31.20,31.01,9,3,18,0.04
2013-10-26,46,41,32,39,32,29,95,73,57,31.09,30.73,15,6,26,0.11
2013-10-27,52,39,30,41,35,29,98,86,54,30.97,30.84,7,2,13,0.00
2013-10-28,57,40,28,45,36,27,99,87,56,31.24,30.97,6,0,12,0.00
2013-10-29,58,42,30,43,36,29,98,82,51,31.30,31.15,3,0,8,0.01
2013-10-30,66,47,31,49,41,30,98,82,46,31.15,30.93,8,1,14,0.00
2013-10-31,66,60,49,61,58,47,97,92,77,30.93,30.18,16,8,31,0.64
2013-11-1,62,54,46,60,49,43,95,82,72,30.55,30.10,20,8,32,0.21
2013-11-2,48,46,42,46,44,41,97,93,87,30.89,30.52,12,3,17,0.53
2013-11-3,44,38,27,41,33,26,97,84,63,31.39,30.89,7,1,14,0.01
2013-11-4,46,35,24,32,25,20,96,71,38,31.47,31.31,8,1,14,0.01
2013-11-5,57,45,34,45,37,31,93,75,54,31.35,31.17,9,1,14,0.00
2013-11-6,58,46,38,47,39,34,90,75,60,31.17,30.94,12,3,20,0.00
2013-11-7,56,43,36,54,38,30,95,83,64,30.98,30.76,14,4,24,0.41
2013-11-8,43,37,30,35,32,28,96,82,60,31.17,30.94,13,3,17,0.20
2013-11-9,56,44,28,44,35,27,96,74,49,31.15,30.76,18,6,27,0.00
2013-11-10,54,45,36,43,36,31,91,69,56,31.13,30.78,17,7,28,0.00
2013-11-11,47,39,31,40,34,30,95,83,59,31.12,30.89,16,5,25,0.20
2013-11-12,36,32,28,31,26,20,96,81,63,31.37,31.07,9,2,20,0.27
2013-11-13,38,33,29,25,23,20,79,68,53,31.40,31.15,12,3,18,0.02
2013-11-14,49,38,30,29,25,22,76,59,41,31.16,30.98,16,8,25,0.02
2013-11-15,52,43,32,34,29,24,85,59,38,31.02,30.94,14,5,22,0.00
2013-11-16,60,46,28,51,41,27,96,83,68,31.10,30.83,12,3,21,0.00
2013-11-17,62,58,53,58,54,42,95,86,61,30.82,30.27,26,11,53,0.45
2013-11-18,53,45,37,43,37,27,78,72,67,30.96,30.40,23,11,35,0.00
2013-11-19,39,36,26,29,27,25,93,72,62,31.31,30.96,10,2,16,0.00
2013-11-20,47,32,21,29,23,19,96,74,33,31.38,31.23,7,1,17,0.00
2013-11-21,41,38,28,40,33,21,98,81,53,31.29,31.09,9,1,12,0.09
2013-11-22,49,43,36,48,41,30,98,93,76,31.17,30.96,9,2,21,0.12
2013-11-23,36,30,22,31,22,8,93,73,52,31.26,31.07,15,6,29,0.00
2013-11-24,24,22,17,19,14,10,89,72,60,31.42,31.26,14,3,23,0.00
2013-11-25,34,25,16,26,17,12,92,72,50,31.37,31.06,16,7,30,0.00
2013-11-26,34,33,32,32,30,23,96,89,65,31.07,30.70,12,3,20,0.00
2013-11-27,34,29,25,32,25,18,97,84,69,31.00,30.65,12,4,25,0.00
2013-11-28,28,25,21,22,20,16,88,79,69,31.32,31.00,10,4,14,0.00
2013-11-29,34,24,5,27,20,3,95,83,65,31.56,31.32,7,0,12,0.14
2013-11-30,39,25,10,27,20,8,95,82,62,31.53,31.09,14,3,23,0.01
2013-12-1,41,29,15,32,26,13,100,88,71,31.09,30.87,6,1,10,0.08
2013-12-2,40,34,26,36,31,25,95,91,79,30.87,30.74,3,0,7,0.02
2013-12-3,44,34,24,38,31,22,97,90,75,30.82,30.76,1,0,3,0.00
2013-12-4,57,44,31,49,41,30,98,88,74,30.85,30.67,8,1,13,0.00
2013-12-5,62,50,34,58,45,32,95,84,77,30.96,30.62,12,5,20,0.03
2013-12-6,35,32,27,34,29,25,99,89,73,31.21,30.95,6,1,13,0.08
2013-12-7,28,24,19,25,19,15,90,80,66,31.49,31.21,8,2,13,0.00
2013-12-8,29,25,20,25,20,17,91,80,68,31.50,30.95,3,0,7,0.00
2013-12-9,35,31,26,33,27,19,96,85,74,31.01,30.81,8,0,16,0.04
2013-12-10,28,25,23,21,16,12,80,69,51,31.02,30.86,18,9,35,0.00
2013-12-11,25,23,19,22,20,11,93,87,70,31.28,31.13,13,4,20,0.00
2013-12-12,19,16,13,14,7,2,89,68,50,31.33,31.11,16,4,24,0.00
2013-12-13,31,23,18,22,16,7,90,72,60,31.18,31.09,10,4,20,0.00
2013-12-14,32,28,22,31,26,19,97,93,88,31.17,30.54,2,0,7,0.00
2013-12-15,32,25,17,32,22,13,97,89,80,30.92,30.52,17,7,25,0.00
2013-12-16,24,16,-1,17,11,-5,92,83,66,31.07,30.92,10,4,16,0.01
2013-12-17,28,24,15,24,21,13,95,88,78,30.94,30.82,13,4,18,0.00
2013-12-18,30,27,23,24,22,18,91,82,74,31.04,30.90,14,6,21,0.00
2013-12-19,45,35,25,34,27,19,91,74,63,30.93,30.85,12,5,18,0.36
2013-12-20,50,43,36,50,41,33,98,92,81,30.85,30.68,9,5,15,0.28
2013-12-21,55,47,39,54,46,38,100,97,95,30.68,30.41,10,3,15,1.20
2013-12-22,62,48,38,58,46,37,99,90,73,30.85,30.32,20,6,31,0.28
2013-12-23,40,34,30,39,30,24,96,85,73,31.19,30.85,12,5,21,0.02
2013-12-24,30,21,12,24,17,8,92,84,73,31.42,31.14,10,2,16,0.00
2013-12-25,28,19,4,21,13,0,93,79,66,31.42,31.08,13,4,25,0.00
2013-12-26,32,28,14,29,23,10,94,84,69,31.22,30.98,16,5,23,0.00
2013-12-27,40,32,24,31,26,20,92,81,70,31.23,31.07,9,4,14,0.04
2013-12-28,51,42,35,38,33,29,81,71,58,31.07,30.86,12,6,18,0.00
2013-12-29,42,39,29,40,33,27,95,80,66,30.86,30.56,9,3,16,0.06
2013-12-30,29,20,14,27,16,9,92,86,74,31.14,30.79,9,2,15,0.00
2013-12-31,22,20,15,20,15,9,91,84,70,31.21,30.95,17,6,25,0.00
2014-1-1,24,21,19,20,18,16,99,89,84,31.26,31.05,5,1,9,0.00
2014-1-2,20,17,11,17,14,8,91,90,87,31.05,30.75,12,4,21,0.00